Time;durP1;ratioP1;P1;durP2;ratioP2;P2;SDS_P1;SDS_P2;PMS_P1;PMS_P2;Temp;Humidity;BMP_temperature;BMP_pressure;BME280_temperature;BME280_humidity;BME280_pressure;Samples;Min_cycle;Max_cycle;Signal;HPM_P1;HPM_P2
2022/11/23 00:01:22;;;;;;;22.17;7.75;;;;;;;;;;5057951;28;20049;-77
2022/11/23 00:03:50;;;;;;;21.35;7.63;;;;;;;;;;5056022;28;20048;-78
2022/11/23 00:06:17;;;;;;;19.73;7.75;;;;;;;;;;5063482;28;20045;-78
2022/11/23 00:08:43;;;;;;;16.48;7.07;;;;;;;;;;5061841;28;20051;-78
2022/11/23 00:11:10;;;;;;;16.05;7.20;;;;;;;;;;5057655;28;20077;-78
2022/11/23 00:13:39;;;;;;;17.85;7.32;;;;;;;;;;5059290;28;20049;-78
2022/11/23 00:16:06;;;;;;;19.73;8.38;;;;;;;;;;5038638;28;20712;-77
2022/11/23 00:18:33;;;;;;;17.85;7.97;;;;;;;;;;5030378;28;20046;-78
2022/11/23 00:20:59;;;;;;;16.42;7.18;;;;;;;;;;5029805;28;20046;-78
2022/11/23 00:23:26;;;;;;;23.38;7.22;;;;;;;;;;5029954;28;20046;-77
2022/11/23 00:25:52;;;;;;;20.08;7.63;;;;;;;;;;5029384;28;20047;-77
2022/11/23 00:28:18;;;;;;;18.65;7.97;;;;;;;;;;5030298;28;20053;-77
2022/11/23 00:30:49;;;;;;;18.52;7.43;;;;;;;;;;5031024;28;20064;-76
2022/11/23 00:33:16;;;;;;;16.35;7.05;;;;;;;;;;5029181;28;20532;-77
2022/11/23 00:35:43;;;;;;;16.00;7.65;;;;;;;;;;5033035;28;20505;-76
2022/11/23 00:38:09;;;;;;;18.65;7.30;;;;;;;;;;5035544;28;20050;-76
2022/11/23 00:40:36;;;;;;;18.02;7.65;;;;;;;;;;5032308;28;20421;-77
2022/11/23 00:43:02;;;;;;;21.70;8.10;;;;;;;;;;5033571;28;20061;-77
2022/11/23 00:45:29;;;;;;;18.63;7.10;;;;;;;;;;5032771;28;20581;-79
2022/11/23 00:47:55;;;;;;;19.23;6.88;;;;;;;;;;5033013;28;20056;-78
2022/11/23 00:50:21;;;;;;;18.48;7.40;;;;;;;;;;5033180;28;20538;-76
2022/11/23 00:52:48;;;;;;;18.15;7.25;;;;;;;;;;5033296;28;20060;-76
2022/11/23 00:55:14;;;;;;;15.90;6.70;;;;;;;;;;5034030;28;20049;-77
2022/11/23 00:57:40;;;;;;;19.42;7.43;;;;;;;;;;5033372;28;20121;-77
2022/11/23 01:00:07;;;;;;;15.05;7.00;;;;;;;;;;5033617;28;20067;-77
2022/11/23 01:02:34;;;;;;;15.23;6.68;;;;;;;;;;5052076;28;20053;-78
2022/11/23 01:05:02;;;;;;;17.27;7.18;;;;;;;;;;5063877;28;20051;-77
2022/11/23 01:07:31;;;;;;;24.33;7.57;;;;;;;;;;5058197;28;20055;-77
2022/11/23 01:09:58;;;;;;;20.40;7.30;;;;;;;;;;5061033;28;20045;-77
2022/11/23 01:12:24;;;;;;;16.60;7.00;;;;;;;;;;5061028;28;20075;-77
2022/11/23 01:14:51;;;;;;;19.83;7.22;;;;;;;;;;5060722;28;20059;-78
2022/11/23 01:17:18;;;;;;;16.35;7.32;;;;;;;;;;5052986;28;20053;-78
2022/11/23 01:19:44;;;;;;;17.27;7.53;;;;;;;;;;5052566;28;20059;-78
2022/11/23 01:22:11;;;;;;;20.13;7.00;;;;;;;;;;5052659;28;20063;-77
2022/11/23 01:24:37;;;;;;;23.13;7.75;;;;;;;;;;5053820;28;20414;-78
2022/11/23 01:27:03;;;;;;;18.10;7.07;;;;;;;;;;5051682;28;20520;-76
2022/11/23 01:29:30;;;;;;;21.75;7.47;;;;;;;;;;5052251;28;20049;-76
2022/11/23 01:31:57;;;;;;;20.23;8.00;;;;;;;;;;5051519;28;20052;-77
2022/11/23 01:34:23;;;;;;;16.63;7.72;;;;;;;;;;5051058;28;20049;-76
2022/11/23 01:36:49;;;;;;;18.15;7.65;;;;;;;;;;5054912;28;20677;-77
2022/11/23 01:39:16;;;;;;;19.48;8.15;;;;;;;;;;5056232;28;20375;-77
2022/11/23 01:41:43;;;;;;;19.48;8.02;;;;;;;;;;5053909;28;20150;-77
2022/11/23 01:44:30;;;;;;;24.50;8.98;;;;;;;;;;5052627;28;20056;-77
2022/11/23 01:46:57;;;;;;;20.65;9.02;;;;;;;;;;5052994;28;20399;-77
2022/11/23 01:49:24;;;;;;;21.67;8.77;;;;;;;;;;5052030;28;20116;-77
2022/11/23 01:51:52;;;;;;;18.77;8.43;;;;;;;;;;5052109;28;20057;-78
2022/11/23 01:54:25;;;;;;;20.42;9.38;;;;;;;;;;5052098;28;20053;-78
2022/11/23 01:56:54;;;;;;;18.88;8.63;;;;;;;;;;5051164;28;20049;-78
2022/11/23 01:59:20;;;;;;;26.95;9.63;;;;;;;;;;5050963;28;20055;-77
2022/11/23 02:01:47;;;;;;;29.92;9.68;;;;;;;;;;5050280;28;20049;-76
2022/11/23 02:04:16;;;;;;;24.38;9.38;;;;;;;;;;5050297;28;20199;-79
2022/11/23 02:06:43;;;;;;;26.40;9.32;;;;;;;;;;5051357;28;20056;-77
2022/11/23 02:09:10;;;;;;;25.58;9.52;;;;;;;;;;5050927;28;20049;-76
2022/11/23 02:11:36;;;;;;;21.63;9.43;;;;;;;;;;5050826;28;20060;-78
2022/11/23 02:14:03;;;;;;;20.38;8.88;;;;;;;;;;5050609;28;20124;-78
2022/11/23 02:16:29;;;;;;;20.92;8.43;;;;;;;;;;5053514;28;20570;-77
2022/11/23 02:18:56;;;;;;;24.58;8.95;;;;;;;;;;5051740;28;20041;-77
2022/11/23 02:21:22;;;;;;;21.23;9.02;;;;;;;;;;5051623;28;20048;-78
2022/11/23 02:23:54;;;;;;;21.92;9.30;;;;;;;;;;5051005;28;20509;-78
2022/11/23 02:26:22;;;;;;;21.55;8.32;;;;;;;;;;5052825;28;20048;-77
2022/11/23 02:28:58;;;;;;;18.30;7.55;;;;;;;;;;5052594;28;20069;-78
2022/11/23 02:31:25;;;;;;;20.33;7.95;;;;;;;;;;5052572;28;20068;-78
2022/11/23 02:33:51;;;;;;;17.65;7.80;;;;;;;;;;5051381;28;20144;-78
2022/11/23 02:36:23;;;;;;;21.60;8.07;;;;;;;;;;5052995;28;20055;-77
2022/11/23 02:38:50;;;;;;;16.92;7.80;;;;;;;;;;5053402;28;20524;-77
2022/11/23 02:41:17;;;;;;;21.88;7.78;;;;;;;;;;5053444;28;20052;-77
2022/11/23 02:43:43;;;;;;;19.67;7.25;;;;;;;;;;5053291;28;20056;-77
2022/11/23 02:46:10;;;;;;;18.23;7.55;;;;;;;;;;5055129;28;20417;-77
2022/11/23 02:48:36;;;;;;;18.10;7.68;;;;;;;;;;5054304;28;20044;-77
2022/11/23 02:51:03;;;;;;;21.63;8.25;;;;;;;;;;5053554;28;20507;-78
2022/11/23 02:53:29;;;;;;;20.60;8.05;;;;;;;;;;5057791;28;20049;-77
2022/11/23 02:55:56;;;;;;;18.63;8.30;;;;;;;;;;5059536;28;20045;-77
2022/11/23 02:58:22;;;;;;;18.73;8.30;;;;;;;;;;5059704;28;20049;-77
2022/11/23 03:00:48;;;;;;;24.73;8.40;;;;;;;;;;5057878;28;20064;-78
2022/11/23 03:03:15;;;;;;;20.38;8.38;;;;;;;;;;5045501;28;20042;-78
2022/11/23 03:05:41;;;;;;;21.05;8.82;;;;;;;;;;5060313;28;20048;-76
2022/11/23 03:08:08;;;;;;;21.75;8.45;;;;;;;;;;5056335;28;20048;-77
2022/11/23 03:10:34;;;;;;;22.50;8.98;;;;;;;;;;5051228;28;20086;-77
2022/11/23 03:13:01;;;;;;;21.35;7.97;;;;;;;;;;5051289;28;20049;-78
2022/11/23 03:15:27;;;;;;;25.40;8.80;;;;;;;;;;5054765;28;20049;-77
2022/11/23 03:17:55;;;;;;;25.98;9.07;;;;;;;;;;5056766;28;20052;-78
2022/11/23 03:20:22;;;;;;;20.73;8.13;;;;;;;;;;5057485;28;20132;-76
2022/11/23 03:22:48;;;;;;;23.40;8.45;;;;;;;;;;5057121;28;20045;-77
2022/11/23 03:25:14;;;;;;;20.50;7.90;;;;;;;;;;5057095;28;20088;-78
2022/11/23 03:27:41;;;;;;;19.17;8.52;;;;;;;;;;5054511;28;20113;-78
2022/11/23 03:30:08;;;;;;;24.13;8.52;;;;;;;;;;5054288;28;20048;-77
2022/11/23 03:32:35;;;;;;;21.52;8.00;;;;;;;;;;5050181;28;20077;-77
2022/11/23 03:35:02;;;;;;;17.77;8.45;;;;;;;;;;5051160;28;20048;-78
2022/11/23 03:37:28;;;;;;;25.48;8.40;;;;;;;;;;5052603;28;20052;-77
2022/11/23 03:39:55;;;;;;;19.52;7.88;;;;;;;;;;5051297;28;20049;-76
2022/11/23 03:42:21;;;;;;;14.75;7.20;;;;;;;;;;5050002;28;20128;-77
2022/11/23 03:44:48;;;;;;;19.42;8.35;;;;;;;;;;5050645;28;20048;-77
2022/11/23 03:47:15;;;;;;;20.52;7.70;;;;;;;;;;5052901;28;20052;-77
2022/11/23 03:49:41;;;;;;;21.27;7.30;;;;;;;;;;5053704;28;20055;-77
2022/11/23 03:52:08;;;;;;;17.65;7.68;;;;;;;;;;5057301;28;20063;-77
2022/11/23 03:54:34;;;;;;;18.75;7.97;;;;;;;;;;5055816;28;20048;-78
2022/11/23 03:57:00;;;;;;;20.50;7.95;;;;;;;;;;5054207;28;20132;-78
2022/11/23 03:59:27;;;;;;;18.52;7.75;;;;;;;;;;5053902;28;20056;-78
2022/11/23 04:01:53;;;;;;;16.05;7.15;;;;;;;;;;5054761;28;20160;-77
2022/11/23 04:04:20;;;;;;;17.02;7.05;;;;;;;;;;5052908;28;20049;-78
2022/11/23 04:06:46;;;;;;;12.25;6.05;;;;;;;;;;5049981;28;20144;-77
2022/11/23 04:09:13;;;;;;;20.70;7.63;;;;;;;;;;5055754;28;20045;-77
2022/11/23 04:11:39;;;;;;;20.45;6.50;;;;;;;;;;5055882;28;20233;-75
2022/11/23 04:14:06;;;;;;;21.10;7.88;;;;;;;;;;5049977;28;20054;-78
2022/11/23 04:16:32;;;;;;;23.40;8.90;;;;;;;;;;5033982;28;20056;-77
2022/11/23 04:18:58;;;;;;;18.20;7.95;;;;;;;;;;5031636;28;20525;-76
2022/11/23 04:21:25;;;;;;;18.55;7.70;;;;;;;;;;5033645;28;20056;-77
2022/11/23 04:23:51;;;;;;;19.33;7.60;;;;;;;;;;5032804;28;20060;-77
2022/11/23 04:26:17;;;;;;;17.27;7.45;;;;;;;;;;5032658;28;20045;-79
2022/11/23 04:28:44;;;;;;;22.33;6.65;;;;;;;;;;5032489;28;20048;-77
2022/11/23 04:31:10;;;;;;;20.45;7.70;;;;;;;;;;5049304;28;20081;-77
2022/11/23 04:33:36;;;;;;;20.13;7.63;;;;;;;;;;5050670;28;20060;-78
2022/11/23 04:36:03;;;;;;;14.40;6.57;;;;;;;;;;5064493;28;20048;-78
2022/11/23 04:38:30;;;;;;;15.95;6.75;;;;;;;;;;5053528;28;20410;-77
2022/11/23 04:40:56;;;;;;;14.60;6.57;;;;;;;;;;5052343;28;20485;-78
2022/11/23 04:43:22;;;;;;;15.95;7.22;;;;;;;;;;5052997;28;20192;-77
2022/11/23 04:45:49;;;;;;;15.52;6.53;;;;;;;;;;5054109;28;20048;-78
2022/11/23 04:48:15;;;;;;;17.40;7.60;;;;;;;;;;5052044;28;20045;-79
2022/11/23 04:50:41;;;;;;;17.55;7.40;;;;;;;;;;5051806;28;20221;-79
2022/11/23 04:53:12;;;;;;;20.10;8.38;;;;;;;;;;5053194;28;20605;-77
2022/11/23 04:55:38;;;;;;;14.75;6.63;;;;;;;;;;5052220;28;20045;-77
2022/11/23 04:58:04;;;;;;;19.98;7.35;;;;;;;;;;5053315;28;20049;-77
2022/11/23 05:00:31;;;;;;;18.58;7.95;;;;;;;;;;5052416;28;20057;-77
2022/11/23 05:02:58;;;;;;;19.15;7.25;;;;;;;;;;5051988;28;20053;-79
2022/11/23 05:05:25;;;;;;;19.48;7.78;;;;;;;;;;5052948;28;20040;-79
2022/11/23 05:07:51;;;;;;;21.35;8.13;;;;;;;;;;5054319;28;20126;-78
2022/11/23 05:10:17;;;;;;;19.50;8.15;;;;;;;;;;5051187;28;20162;-79
2022/11/23 05:12:44;;;;;;;22.02;7.80;;;;;;;;;;5051997;28;20052;-79
2022/11/23 05:15:12;;;;;;;19.27;7.65;;;;;;;;;;5052963;28;20048;-78
2022/11/23 05:17:38;;;;;;;20.55;8.07;;;;;;;;;;5051211;28;20059;-78
2022/11/23 05:20:05;;;;;;;21.65;8.07;;;;;;;;;;5051616;28;20429;-79
2022/11/23 05:22:31;;;;;;;17.83;7.50;;;;;;;;;;5052337;28;20055;-78
2022/11/23 05:24:58;;;;;;;18.83;7.35;;;;;;;;;;5052088;28;20045;-78
2022/11/23 05:27:24;;;;;;;18.25;7.80;;;;;;;;;;5052143;28;20051;-78
2022/11/23 05:29:50;;;;;;;22.60;8.55;;;;;;;;;;5052556;28;20057;-75
2022/11/23 05:32:17;;;;;;;21.50;8.10;;;;;;;;;;5049360;28;20060;-73
2022/11/23 05:34:43;;;;;;;19.08;8.02;;;;;;;;;;5050878;28;20060;-75
2022/11/23 05:37:10;;;;;;;18.77;7.15;;;;;;;;;;5051182;28;20072;-74
2022/11/23 05:39:36;;;;;;;22.02;7.95;;;;;;;;;;5051616;28;20045;-73
2022/11/23 05:42:03;;;;;;;22.00;7.63;;;;;;;;;;5051652;28;20420;-74
2022/11/23 05:44:32;;;;;;;23.15;8.35;;;;;;;;;;5050160;28;20045;-74
2022/11/23 05:46:58;;;;;;;18.00;7.85;;;;;;;;;;5052645;28;20561;-75
2022/11/23 05:49:28;;;;;;;22.02;8.13;;;;;;;;;;5050790;28;20284;-74
2022/11/23 05:51:55;;;;;;;17.88;7.90;;;;;;;;;;5047314;28;20042;-75
2022/11/23 05:54:21;;;;;;;21.88;8.05;;;;;;;;;;5049158;28;20045;-75
2022/11/23 05:56:48;;;;;;;23.02;8.30;;;;;;;;;;5048019;28;20060;-73
2022/11/23 05:59:14;;;;;;;20.60;8.60;;;;;;;;;;5047675;28;20396;-78
2022/11/23 06:01:40;;;;;;;20.77;8.10;;;;;;;;;;5051726;28;20493;-77
2022/11/23 06:04:07;;;;;;;23.67;8.55;;;;;;;;;;5049546;28;20493;-77
2022/11/23 06:06:34;;;;;;;23.42;7.93;;;;;;;;;;5048073;28;20049;-78
2022/11/23 06:09:00;;;;;;;19.95;7.75;;;;;;;;;;5051851;28;20040;-79
2022/11/23 06:11:29;;;;;;;18.10;7.72;;;;;;;;;;5055484;28;20049;-77
2022/11/23 06:13:56;;;;;;;21.45;8.45;;;;;;;;;;5060481;28;20045;-78
2022/11/23 06:16:22;;;;;;;22.05;8.07;;;;;;;;;;5065513;28;20055;-76
2022/11/23 06:18:49;;;;;;;22.55;8.43;;;;;;;;;;5064756;28;20063;-78
2022/11/23 06:21:15;;;;;;;25.45;8.50;;;;;;;;;;5065547;28;20136;-78
2022/11/23 06:23:42;;;;;;;19.27;8.40;;;;;;;;;;5057498;28;20057;-78
2022/11/23 06:26:09;;;;;;;23.42;9.43;;;;;;;;;;5046347;28;20053;-80
2022/11/23 06:28:35;;;;;;;20.85;9.48;;;;;;;;;;5048240;28;20170;-79
2022/11/23 06:31:03;;;;;;;19.80;8.25;;;;;;;;;;5050009;28;20497;-77
2022/11/23 06:33:29;;;;;;;21.25;8.60;;;;;;;;;;5048573;28;20053;-76
2022/11/23 06:35:57;;;;;;;21.77;9.57;;;;;;;;;;5049595;28;20131;-76
2022/11/23 06:38:23;;;;;;;29.13;9.43;;;;;;;;;;5049904;28;20052;-78
2022/11/23 06:40:50;;;;;;;25.08;8.60;;;;;;;;;;5048245;28;20076;-76
2022/11/23 06:43:16;;;;;;;22.08;8.77;;;;;;;;;;5046425;28;20072;-77
2022/11/23 06:45:43;;;;;;;20.58;8.10;;;;;;;;;;5046741;28;20049;-79
2022/11/23 06:48:10;;;;;;;20.17;8.70;;;;;;;;;;5047906;28;20524;-78
2022/11/23 06:50:36;;;;;;;19.95;7.80;;;;;;;;;;5049409;28;20048;-80
2022/11/23 06:53:03;;;;;;;24.73;8.10;;;;;;;;;;5049222;28;20497;-79
2022/11/23 06:55:29;;;;;;;21.50;8.73;;;;;;;;;;5048847;28;20409;-80
2022/11/23 06:57:56;;;;;;;27.63;8.77;;;;;;;;;;5049195;28;20518;-78
2022/11/23 07:00:23;;;;;;;18.73;7.97;;;;;;;;;;5050692;28;20052;-77
2022/11/23 07:02:50;;;;;;;22.83;8.48;;;;;;;;;;5049126;28;20569;-77
2022/11/23 07:05:17;;;;;;;27.73;9.18;;;;;;;;;;5049811;28;20049;-78
2022/11/23 07:07:43;;;;;;;27.73;10.30;;;;;;;;;;5050144;28;20053;-78
2022/11/23 07:10:10;;;;;;;23.17;10.95;;;;;;;;;;5048873;28;20092;-78
2022/11/23 07:12:37;;;;;;;28.45;10.25;;;;;;;;;;5049339;28;20048;-77
2022/11/23 07:15:03;;;;;;;24.30;10.18;;;;;;;;;;5038992;28;20056;-78
2022/11/23 07:17:29;;;;;;;21.92;9.55;;;;;;;;;;5029322;28;20049;-78
2022/11/23 07:19:56;;;;;;;19.83;9.63;;;;;;;;;;5030343;28;20055;-80
2022/11/23 07:22:22;;;;;;;19.70;8.57;;;;;;;;;;5031212;28;20140;-79
2022/11/23 07:24:49;;;;;;;22.00;9.05;;;;;;;;;;5031442;28;20057;-79
2022/11/23 07:27:16;;;;;;;26.58;8.63;;;;;;;;;;5038410;28;20045;-78
2022/11/23 07:29:42;;;;;;;21.48;9.57;;;;;;;;;;5037551;28;20045;-77
2022/11/23 07:32:08;;;;;;;22.98;9.93;;;;;;;;;;5034200;28;20164;-77
2022/11/23 07:34:35;;;;;;;21.70;8.75;;;;;;;;;;5036464;28;20061;-78
2022/11/23 07:37:03;;;;;;;20.08;9.40;;;;;;;;;;5042415;28;20045;-78
2022/11/23 07:39:30;;;;;;;25.63;9.70;;;;;;;;;;5041538;28;20441;-77
2022/11/23 07:42:16;;;;;;;27.10;9.93;;;;;;;;;;5043006;28;20445;-78
2022/11/23 07:44:59;;;;;;;22.27;9.38;;;;;;;;;;5043409;28;20214;-77
2022/11/23 07:47:25;;;;;;;29.95;10.55;;;;;;;;;;5045494;28;20049;-78
2022/11/23 07:49:51;;;;;;;23.85;9.25;;;;;;;;;;5045006;28;20057;-78
2022/11/23 07:52:18;;;;;;;24.98;10.35;;;;;;;;;;5061391;28;20108;-77
2022/11/23 07:54:44;;;;;;;22.02;9.63;;;;;;;;;;5042367;28;20049;-78
2022/11/23 07:57:11;;;;;;;25.30;10.95;;;;;;;;;;5040995;28;20049;-79
2022/11/23 07:59:37;;;;;;;26.42;10.35;;;;;;;;;;5040648;28;20588;-77
2022/11/23 08:02:04;;;;;;;31.88;10.20;;;;;;;;;;5038115;28;20052;-78
2022/11/23 08:04:30;;;;;;;27.80;10.32;;;;;;;;;;5051359;28;20530;-77
2022/11/23 08:06:57;;;;;;;27.13;10.27;;;;;;;;;;5062068;28;20287;-79
2022/11/23 08:09:23;;;;;;;28.75;9.13;;;;;;;;;;5061137;28;20039;-79
2022/11/23 08:11:50;;;;;;;21.77;9.45;;;;;;;;;;5058855;28;20049;-78
2022/11/23 08:14:16;;;;;;;25.42;11.32;;;;;;;;;;5055464;28;20115;-79
2022/11/23 08:16:43;;;;;;;23.52;9.80;;;;;;;;;;5040999;28;20053;-78
2022/11/23 08:19:09;;;;;;;23.52;9.05;;;;;;;;;;5045025;28;20080;-77
2022/11/23 08:21:35;;;;;;;21.40;8.45;;;;;;;;;;5044236;28;20056;-78
2022/11/23 08:24:02;;;;;;;26.17;8.63;;;;;;;;;;5044223;28;20076;-77
2022/11/23 08:26:28;;;;;;;17.80;7.43;;;;;;;;;;5047604;28;20141;-76
2022/11/23 08:28:56;;;;;;;19.60;7.15;;;;;;;;;;5045130;28;20048;-79
2022/11/23 08:31:22;;;;;;;17.83;6.80;;;;;;;;;;5033249;28;20113;-79
2022/11/23 08:33:49;;;;;;;12.98;5.38;;;;;;;;;;5029621;28;20057;-78
2022/11/23 08:36:15;;;;;;;16.33;5.45;;;;;;;;;;5029261;28;20060;-78
2022/11/23 08:38:42;;;;;;;13.32;5.18;;;;;;;;;;5029682;28;20057;-79
2022/11/23 08:41:08;;;;;;;15.73;4.90;;;;;;;;;;5029369;28;20532;-80
2022/11/23 08:43:34;;;;;;;18.75;7.05;;;;;;;;;;5030551;28;20080;-79
2022/11/23 08:46:01;;;;;;;16.52;5.47;;;;;;;;;;5030839;28;20049;-79
2022/11/23 08:48:33;;;;;;;13.43;6.40;;;;;;;;;;5031894;28;20132;-78
2022/11/23 08:50:59;;;;;;;10.98;5.03;;;;;;;;;;5031816;28;20056;-79
2022/11/23 08:53:26;;;;;;;12.15;4.10;;;;;;;;;;5044596;28;20041;-78
2022/11/23 08:55:52;;;;;;;9.50;3.90;;;;;;;;;;5031977;28;20437;-77
2022/11/23 08:58:19;;;;;;;17.75;6.28;;;;;;;;;;5035308;28;20049;-78
2022/11/23 09:00:45;;;;;;;9.68;3.40;;;;;;;;;;5037017;28;20048;-79
2022/11/23 09:03:12;;;;;;;5.70;2.00;;;;;;;;;;5034243;28;20053;-78
2022/11/23 09:05:38;;;;;;;7.75;2.13;;;;;;;;;;5056599;28;20052;-79
2022/11/23 09:08:04;;;;;;;6.72;1.92;;;;;;;;;;5055222;28;20047;-77
2022/11/23 09:10:31;;;;;;;5.90;1.90;;;;;;;;;;5068265;28;20059;-78
2022/11/23 09:12:58;;;;;;;4.18;1.92;;;;;;;;;;5062369;28;20216;-78
2022/11/23 09:15:24;;;;;;;4.32;1.58;;;;;;;;;;5040598;28;20390;-79
2022/11/23 09:17:50;;;;;;;5.00;1.75;;;;;;;;;;5032629;28;20061;-79
2022/11/23 09:20:17;;;;;;;6.50;1.80;;;;;;;;;;5033250;28;20041;-78
2022/11/23 09:22:48;;;;;;;6.65;1.88;;;;;;;;;;5033171;28;20061;-79
2022/11/23 09:25:15;;;;;;;5.65;1.90;;;;;;;;;;5032740;28;20059;-79
2022/11/23 09:27:42;;;;;;;6.15;2.00;;;;;;;;;;5033380;28;20054;-78
2022/11/23 09:30:09;;;;;;;6.03;1.85;;;;;;;;;;5033240;28;20060;-78
2022/11/23 09:32:35;;;;;;;6.78;1.95;;;;;;;;;;5031832;28;20057;-78
2022/11/23 09:35:02;;;;;;;4.90;1.60;;;;;;;;;;5033208;28;20124;-78
2022/11/23 09:37:28;;;;;;;5.82;1.65;;;;;;;;;;5032829;28;20061;-77
2022/11/23 09:39:54;;;;;;;7.97;2.15;;;;;;;;;;5044047;28;20049;-77
2022/11/23 09:42:38;;;;;;;7.57;2.08;;;;;;;;;;5035261;28;20049;-78
2022/11/23 09:45:20;;;;;;;7.55;1.88;;;;;;;;;;5033065;28;20041;-79
2022/11/23 09:48:00;;;;;;;8.68;2.38;;;;;;;;;;5032560;28;20049;-78
2022/11/23 09:50:28;;;;;;;8.13;1.83;;;;;;;;;;5031569;28;20049;-78
2022/11/23 09:52:54;;;;;;;8.52;2.05;;;;;;;;;;5032368;28;20061;-78
2022/11/23 09:55:35;;;;;;;7.72;2.35;;;;;;;;;;5031959;28;20056;-78
2022/11/23 09:58:03;;;;;;;6.38;2.30;;;;;;;;;;5032490;28;20462;-77
2022/11/23 10:00:37;;;;;;;5.78;1.90;;;;;;;;;;5031478;28;20506;-78
2022/11/23 10:03:04;;;;;;;4.45;1.73;;;;;;;;;;5031516;28;20055;-79
2022/11/23 10:05:34;;;;;;;4.50;1.58;;;;;;;;;;5042182;28;20148;-78
2022/11/23 10:08:05;;;;;;;9.43;2.38;;;;;;;;;;5051411;28;20056;-79
2022/11/23 10:10:38;;;;;;;9.10;2.08;;;;;;;;;;5051053;28;20071;-79
2022/11/23 10:13:10;;;;;;;5.95;2.08;;;;;;;;;;5054881;28;20048;-77
2022/11/23 10:15:47;;;;;;;4.90;2.03;;;;;;;;;;5055010;28;20593;-80
2022/11/23 10:18:23;;;;;;;10.05;2.38;;;;;;;;;;5052191;28;20053;-77
2022/11/23 10:20:49;;;;;;;;;;;;;;;;;;5054221;28;20049;-78
2022/11/23 10:23:25;;;;;;;6.38;1.70;;;;;;;;;;5058651;28;20474;-77
2022/11/23 10:25:52;;;;;;;3.50;1.60;;;;;;;;;;5069005;28;20051;-78
2022/11/23 10:28:20;;;;;;;5.45;1.77;;;;;;;;;;5063016;28;20075;-78
2022/11/23 10:30:50;;;;;;;3.28;1.48;;;;;;;;;;5060778;28;20061;-78
2022/11/23 10:33:21;;;;;;;6.28;1.30;;;;;;;;;;5061520;28;20144;-79
2022/11/23 10:35:48;;;;;;;3.55;1.70;;;;;;;;;;5060285;28;20048;-78
2022/11/23 10:38:16;;;;;;;3.97;1.30;;;;;;;;;;5066006;28;20053;-78
2022/11/23 10:41:05;;;;;;;3.35;1.50;;;;;;;;;;5048347;28;20057;-76
2022/11/23 10:43:43;;;;;;;5.00;1.63;;;;;;;;;;5042103;28;20053;-77
2022/11/23 10:46:25;;;;;;;4.72;1.60;;;;;;;;;;5065068;28;20108;-77
2022/11/23 10:48:52;;;;;;;4.50;1.70;;;;;;;;;;5064266;28;20063;-78
2022/11/23 10:51:28;;;;;;;4.40;1.58;;;;;;;;;;5061436;28;20053;-79
2022/11/23 10:53:57;;;;;;;4.68;1.55;;;;;;;;;;5062757;28;20053;-78
2022/11/23 10:56:30;;;;;;;6.60;1.70;;;;;;;;;;5064521;28;20068;-78
2022/11/23 10:58:57;;;;;;;2.97;1.27;;;;;;;;;;5059469;28;20481;-79
2022/11/23 11:01:24;;;;;;;5.00;1.52;;;;;;;;;;5059177;28;20053;-78
2022/11/23 11:03:52;;;;;;;4.63;1.45;;;;;;;;;;5057255;28;20056;-78
2022/11/23 11:06:28;;;;;;;6.63;1.50;;;;;;;;;;5057504;28;20087;-80
2022/11/23 11:08:56;;;;;;;5.05;1.40;;;;;;;;;;5060321;28;20132;-79
2022/11/23 11:11:33;;;;;;;6.30;1.35;;;;;;;;;;5061153;28;20049;-79
2022/11/23 11:14:12;;;;;;;7.45;1.30;;;;;;;;;;5054198;28;20045;-78
2022/11/23 11:16:46;;;;;;;4.18;1.20;;;;;;;;;;5042905;28;20050;-78
2022/11/23 11:19:22;;;;;;;3.70;1.42;;;;;;;;;;5040649;28;20052;-79
2022/11/23 11:21:48;;;;;;;4.00;1.00;;;;;;;;;;5040760;28;20603;-79
2022/11/23 11:24:27;;;;;;;6.97;1.30;;;;;;;;;;5037933;28;20045;-78
2022/11/23 11:26:58;;;;;;;6.00;1.40;;;;;;;;;;5040627;28;20118;-79
2022/11/23 11:29:32;;;;;;;4.50;1.40;;;;;;;;;;5037731;28;20045;-77
2022/11/23 11:32:04;;;;;;;6.25;1.40;;;;;;;;;;5036765;28;20336;-78
2022/11/23 11:34:42;;;;;;;3.72;1.73;;;;;;;;;;5036011;28;20063;-77
2022/11/23 11:37:16;;;;;;;3.38;1.20;;;;;;;;;;5036201;28;20143;-77
2022/11/23 11:39:50;;;;;;;4.07;1.40;;;;;;;;;;5038132;28;20053;-77
2022/11/23 11:42:19;;;;;;;5.10;1.40;;;;;;;;;;5055236;28;20048;-77
2022/11/23 11:44:47;;;;;;;3.58;1.25;;;;;;;;;;5041392;28;20041;-79
2022/11/23 11:47:22;;;;;;;2.55;1.10;;;;;;;;;;5039136;28;20060;-78
2022/11/23 11:49:49;;;;;;;5.22;1.80;;;;;;;;;;5035864;28;20059;-78
2022/11/23 11:52:18;;;;;;;5.43;1.30;;;;;;;;;;5036550;28;20056;-79
2022/11/23 11:54:44;;;;;;;4.40;1.30;;;;;;;;;;5033975;28;20041;-79
2022/11/23 11:57:20;;;;;;;5.57;1.40;;;;;;;;;;5033541;28;20635;-77
2022/11/23 11:59:48;;;;;;;6.10;1.30;;;;;;;;;;5034683;28;20076;-78
2022/11/23 12:02:21;;;;;;;6.03;1.88;;;;;;;;;;5032509;28;20059;-77
2022/11/23 12:04:47;;;;;;;5.88;1.42;;;;;;;;;;5046063;28;20461;-78
2022/11/23 12:07:20;;;;;;;4.53;1.25;;;;;;;;;;5047889;28;20057;-78
2022/11/23 12:09:49;;;;;;;6.43;1.45;;;;;;;;;;5032755;28;20510;-77
2022/11/23 12:12:17;;;;;;;5.55;1.50;;;;;;;;;;5045759;28;20050;-75
2022/11/23 12:14:45;;;;;;;3.05;1.10;;;;;;;;;;5054523;28;20042;-77
2022/11/23 12:17:20;;;;;;;5.60;1.33;;;;;;;;;;5054136;28;20122;-79
2022/11/23 12:20:02;;;;;;;5.60;1.38;;;;;;;;;;5033312;28;20504;-80
2022/11/23 12:22:37;;;;;;;4.97;1.48;;;;;;;;;;5031199;28;20046;-79
2022/11/23 12:25:04;;;;;;;;;;;;;;;;;;5031367;28;20045;-79
2022/11/23 12:27:30;;;;;;;;;;;;;;;;;;5031564;28;20406;-79
2022/11/23 12:29:56;;;;;;;;;;;;;;;;;;5032752;28;19921;-77
2022/11/23 12:32:35;;;;;;;4.72;1.42;;;;;;;;;;5032982;28;19925;-79
2022/11/23 12:35:10;;;;;;;11.05;1.90;;;;;;;;;;5041483;28;20132;-79
2022/11/23 12:37:55;;;;;;;4.68;1.30;;;;;;;;;;5039063;28;20077;-78
2022/11/23 12:40:45;;;;;;;8.25;1.48;;;;;;;;;;5040638;28;20067;-78
2022/11/23 12:43:15;;;;;;;6.82;2.00;;;;;;;;;;5033018;28;20605;-79
2022/11/23 12:45:50;;;;;;;4.68;1.30;;;;;;;;;;5038302;28;20536;-77
2022/11/23 12:48:17;;;;;;;;;;;;;;;;;;5035472;28;20128;-79
2022/11/23 12:50:55;;;;;;;5.35;1.13;;;;;;;;;;5035699;28;19995;-78
2022/11/23 12:53:41;;;;;;;5.72;1.50;;;;;;;;;;5034392;28;20125;-78
2022/11/23 12:56:11;;;;;;;5.28;1.40;;;;;;;;;;5036700;28;20056;-76
2022/11/23 12:58:38;;;;;;;5.00;1.20;;;;;;;;;;5036778;28;20098;-76
2022/11/23 13:01:07;;;;;;;6.90;1.42;;;;;;;;;;5055327;28;20037;-77
2022/11/23 13:03:35;;;;;;;5.55;1.33;;;;;;;;;;5047569;28;20080;-78
2022/11/23 13:06:18;;;;;;;5.40;1.30;;;;;;;;;;5058371;28;20072;-78
2022/11/23 13:08:48;;;;;;;6.25;1.35;;;;;;;;;;5057075;28;20049;-78
2022/11/23 13:11:19;;;;;;;4.68;1.25;;;;;;;;;;5056193;28;20049;-78
2022/11/23 13:13:54;;;;;;;7.55;1.25;;;;;;;;;;5053628;28;20072;-79
2022/11/23 13:16:22;;;;;;;7.53;1.73;;;;;;;;;;5056617;28;20485;-78
2022/11/23 13:19:11;;;;;;;2.75;1.13;;;;;;;;;;5054110;28;20140;-78
2022/11/23 13:21:39;;;;;;;5.65;1.48;;;;;;;;;;5056977;28;20049;-79
2022/11/23 13:24:29;;;;;;;7.45;1.20;;;;;;;;;;5059764;28;20137;-78
2022/11/23 13:27:14;;;;;;;4.72;1.02;;;;;;;;;;5054993;28;20049;-79
2022/11/23 13:29:50;;;;;;;4.32;1.45;;;;;;;;;;5053734;28;20073;-79
2022/11/23 13:32:35;;;;;;;8.35;1.25;;;;;;;;;;5054225;28;20056;-78
2022/11/23 13:35:02;;;;;;;5.47;1.92;;;;;;;;;;5054851;28;20564;-79
2022/11/23 13:37:28;;;;;;;5.70;1.30;;;;;;;;;;5055924;28;20063;-79
2022/11/23 13:39:57;;;;;;;5.78;1.40;;;;;;;;;;5055743;28;20053;-78
2022/11/23 13:42:24;;;;;;;6.57;1.00;;;;;;;;;;5053305;28;20080;-79
2022/11/23 13:45:09;;;;;;;3.42;1.15;;;;;;;;;;5053434;28;20140;-79
2022/11/23 13:47:36;;;;;;;6.23;1.30;;;;;;;;;;5055603;28;20059;-79
2022/11/23 13:50:17;;;;;;;7.25;1.48;;;;;;;;;;5054316;28;20339;-78
2022/11/23 13:52:48;;;;;;;6.53;1.27;;;;;;;;;;5054891;28;20048;-79
2022/11/23 13:55:19;;;;;;;5.85;2.10;;;;;;;;;;5054415;28;20052;-79
2022/11/23 13:58:05;;;;;;;6.15;1.02;;;;;;;;;;5055558;28;20044;-79
2022/11/23 14:00:45;;;;;;;6.05;1.40;;;;;;;;;;5053233;28;20049;-78
2022/11/23 14:03:30;;;;;;;5.97;1.60;;;;;;;;;;5051738;28;20052;-78
2022/11/23 14:05:58;;;;;;;6.78;1.55;;;;;;;;;;5052954;28;20049;-79
2022/11/23 14:08:25;;;;;;;6.93;1.30;;;;;;;;;;5055037;28;20041;-78
2022/11/23 14:10:52;;;;;;;6.53;1.80;;;;;;;;;;5053254;28;20067;-78
2022/11/23 14:13:26;;;;;;;7.18;1.63;;;;;;;;;;5051543;28;20075;-77
2022/11/23 14:16:00;;;;;;;7.13;1.60;;;;;;;;;;5053554;28;20048;-78
2022/11/23 14:18:32;;;;;;;5.65;1.52;;;;;;;;;;5055923;28;20056;-78
2022/11/23 14:21:11;;;;;;;3.70;1.50;;;;;;;;;;5052613;28;20049;-79
2022/11/23 14:23:56;;;;;;;5.55;1.48;;;;;;;;;;5053568;28;20045;-78
2022/11/23 14:26:28;;;;;;;8.10;1.88;;;;;;;;;;5053967;28;20045;-78
2022/11/23 14:28:55;;;;;;;6.88;1.52;;;;;;;;;;5052534;28;20063;-78
2022/11/23 14:31:37;;;;;;;6.07;1.33;;;;;;;;;;5053159;28;20052;-78
2022/11/23 14:34:26;;;;;;;8.23;1.63;;;;;;;;;;5050637;28;20521;-79
2022/11/23 14:37:00;;;;;;;8.23;1.70;;;;;;;;;;5049923;28;20051;-77
2022/11/23 14:39:39;;;;;;;8.90;1.90;;;;;;;;;;5050871;28;20044;-77
2022/11/23 14:42:14;;;;;;;5.82;1.63;;;;;;;;;;5050755;28;20052;-79
2022/11/23 14:44:40;;;;;;;8.52;1.48;;;;;;;;;;5050736;28;20045;-77
2022/11/23 14:47:09;;;;;;;8.30;2.00;;;;;;;;;;5050620;28;20055;-77